Nags Head, NC (27959)

5:30 PM EDT on September 03, 2015 (GMT -0400)
Mirlo Beach | | Change Station
CLOSE
Current Station
Personal Weather Station
Location: North Carolina, NC
Elevation: 3 ft
Nearby Weather Stations

Elev 3 ft 35.60 °N, 75.47 °W | Updated 7 minutes ago

Clear
Clear
83.8 °F
Feels Like 92 °F
N
5.0
Wind Variable Wind from SW
Gusts 5.0 mph

Today
High -- | Low -- °F
--% Chance of Precip.
Yesterday
High -- | Low -- °F
Precip. -- in
6:35 AM 7:26 PM
Waning Gibbous, 66% visible
Pressure 29.88 in
Visibility 10.0 miles
Clouds Clear
Heat Index 92 °F
Dew Point 75 °F
Humidity 75%
Rainfall 0.00 in
Snow Depth Not available.
UV 3 out of 12
Pollen 7.20 out of 12
Air Quality Not available.
Flu Activity Not available.
METAR KHSE 032051Z AUTO 20004KT 10SM CLR 28/20 A2988 RMK AO2 SLP119 T02780200 56014 TSNO
Pressure 29.88 in
Visibility 10.0 miles
Clouds Clear
Heat Index 92 °F
Dew Point 75 °F
Humidity 75%
Rainfall 0.00 in
Snow Depth Not available.
UV 3 out of 12
Pollen 7.20 out of 12
Air Quality Not available.
Flu Activity Not available.
METAR KHSE 032051Z AUTO 20004KT 10SM CLR 28/20 A2988 RMK AO2 SLP119 T02780200 56014 TSNO

10-Day Weather Forecast

×

Almanac

Astronomy

Sep. 03, 2015 Rise Set
Actual Time
Civil Twilight
Nautical Twilight
Astronomical Twilight
Moon
Length of Visible Light
Length of Day
Tomorrow will be .
, % of the Moon is Illuminated

Today's Extremes

State Highs State Lows

Community

WunderPhotos

Upload Photos

1,852,043 photos uploaded!

WunderBlogs® & News

Nearby

Air Quality

  Air Quality AQ Index Pollutant
Not available.

Snow Depth

Station Depth Elevation

Earthquake Activity

City Distance Mag. Time & Date
Minimum magnitude displayed is 2.5.

Coastal Water Temperatures

Place Temperature

Stations

Nearby Weather Stations

Station Location Temp. Windchill Dew Point Humidity Wind Precip. Elev Updated Type